sensor_id;sensor_type;location;lat;lon;timestamp;temperature;humidity
18888;DHT22;9576;47.792;9.628;2022-09-09T00:01:32;14.70;99.90
18888;DHT22;9576;47.792;9.628;2022-09-09T00:04:39;14.70;99.90
18888;DHT22;9576;47.792;9.628;2022-09-09T00:07:43;14.60;99.90
18888;DHT22;9576;47.792;9.628;2022-09-09T00:10:47;14.60;99.90
18888;DHT22;9576;47.792;9.628;2022-09-09T00:13:53;14.70;99.90
18888;DHT22;9576;47.792;9.628;2022-09-09T00:16:58;14.70;99.90
18888;DHT22;9576;47.792;9.628;2022-09-09T00:20:03;14.70;99.90
18888;DHT22;9576;47.792;9.628;2022-09-09T00:23:09;14.70;99.90
18888;DHT22;9576;47.792;9.628;2022-09-09T00:26:14;14.70;99.90
18888;DHT22;9576;47.792;9.628;2022-09-09T00:29:21;14.70;99.90
18888;DHT22;9576;47.792;9.628;2022-09-09T00:32:28;14.70;99.90
18888;DHT22;9576;47.792;9.628;2022-09-09T00:35:31;14.70;99.90
18888;DHT22;9576;47.792;9.628;2022-09-09T00:38:34;14.70;99.90
18888;DHT22;9576;47.792;9.628;2022-09-09T00:41:40;14.70;99.90
18888;DHT22;9576;47.792;9.628;2022-09-09T00:44:49;14.60;99.90
18888;DHT22;9576;47.792;9.628;2022-09-09T00:47:53;14.50;99.90
18888;DHT22;9576;47.792;9.628;2022-09-09T00:50:56;14.50;99.90
18888;DHT22;9576;47.792;9.628;2022-09-09T00:54:12;14.60;99.90
18888;DHT22;9576;47.792;9.628;2022-09-09T00:57:22;14.50;99.90
18888;DHT22;9576;47.792;9.628;2022-09-09T01:00:26;14.50;99.90
18888;DHT22;9576;47.792;9.628;2022-09-09T01:03:31;14.50;99.90
18888;DHT22;9576;47.792;9.628;2022-09-09T01:06:34;14.40;99.90
18888;DHT22;9576;47.792;9.628;2022-09-09T01:09:42;14.40;99.90
18888;DHT22;9576;47.792;9.628;2022-09-09T01:12:47;14.40;99.90
18888;DHT22;9576;47.792;9.628;2022-09-09T01:15:50;14.40;99.90
18888;DHT22;9576;47.792;9.628;2022-09-09T01:18:53;14.30;99.90
18888;DHT22;9576;47.792;9.628;2022-09-09T01:21:56;14.30;99.90
18888;DHT22;9576;47.792;9.628;2022-09-09T01:25:08;14.20;99.90
18888;DHT22;9576;47.792;9.628;2022-09-09T01:28:13;14.20;99.90
18888;DHT22;9576;47.792;9.628;2022-09-09T01:31:18;14.20;99.90
18888;DHT22;9576;47.792;9.628;2022-09-09T01:34:21;14.20;99.90
18888;DHT22;9576;47.792;9.628;2022-09-09T01:37:23;14.20;99.90
18888;DHT22;9576;47.792;9.628;2022-09-09T01:40:25;14.10;99.90
18888;DHT22;9576;47.792;9.628;2022-09-09T01:43:28;14.20;99.90
18888;DHT22;9576;47.792;9.628;2022-09-09T01:46:30;14.20;99.90
18888;DHT22;9576;47.792;9.628;2022-09-09T01:49:32;14.10;99.90
18888;DHT22;9576;47.792;9.628;2022-09-09T01:52:34;14.10;99.90
18888;DHT22;9576;47.792;9.628;2022-09-09T01:55:37;14.10;99.90
18888;DHT22;9576;47.792;9.628;2022-09-09T01:58:44;14.00;99.90
18888;DHT22;9576;47.792;9.628;2022-09-09T02:01:52;13.90;99.90
18888;DHT22;9576;47.792;9.628;2022-09-09T02:04:59;13.90;99.90
18888;DHT22;9576;47.792;9.628;2022-09-09T02:08:05;13.90;99.90
18888;DHT22;9576;47.792;9.628;2022-09-09T02:11:09;13.80;99.90
18888;DHT22;9576;47.792;9.628;2022-09-09T02:14:16;13.90;99.90
18888;DHT22;9576;47.792;9.628;2022-09-09T02:17:20;13.90;99.90
18888;DHT22;9576;47.792;9.628;2022-09-09T02:20:23;13.80;99.90
18888;DHT22;9576;47.792;9.628;2022-09-09T02:23:27;13.80;99.90
18888;DHT22;9576;47.792;9.628;2022-09-09T02:26:29;13.80;99.90
18888;DHT22;9576;47.792;9.628;2022-09-09T02:29:33;13.80;99.90
18888;DHT22;9576;47.792;9.628;2022-09-09T02:32:35;13.70;99.90
18888;DHT22;9576;47.792;9.628;2022-09-09T02:35:39;13.60;99.90
18888;DHT22;9576;47.792;9.628;2022-09-09T02:38:44;13.60;99.90
18888;DHT22;9576;47.792;9.628;2022-09-09T02:41:50;13.60;99.90
18888;DHT22;9576;47.792;9.628;2022-09-09T02:44:54;13.60;99.90
18888;DHT22;9576;47.792;9.628;2022-09-09T02:47:57;13.60;99.90
18888;DHT22;9576;47.792;9.628;2022-09-09T02:51:02;13.60;99.90
18888;DHT22;9576;47.792;9.628;2022-09-09T02:54:10;13.60;99.90
18888;DHT22;9576;47.792;9.628;2022-09-09T02:57:13;13.50;99.90
18888;DHT22;9576;47.792;9.628;2022-09-09T03:00:23;13.50;99.90
18888;DHT22;9576;47.792;9.628;2022-09-09T03:03:25;13.60;99.90
18888;DHT22;9576;47.792;9.628;2022-09-09T03:06:27;13.70;99.90
18888;DHT22;9576;47.792;9.628;2022-09-09T03:09:29;13.80;99.90
18888;DHT22;9576;47.792;9.628;2022-09-09T03:12:31;13.90;99.90
18888;DHT22;9576;47.792;9.628;2022-09-09T03:15:35;13.80;99.90
18888;DHT22;9576;47.792;9.628;2022-09-09T03:18:37;13.70;99.90
18888;DHT22;9576;47.792;9.628;2022-09-09T03:21:39;13.80;99.90
18888;DHT22;9576;47.792;9.628;2022-09-09T03:24:41;13.80;99.90
18888;DHT22;9576;47.792;9.628;2022-09-09T03:27:43;13.90;99.90
18888;DHT22;9576;47.792;9.628;2022-09-09T03:30:46;13.90;99.90
18888;DHT22;9576;47.792;9.628;2022-09-09T03:33:48;14.00;99.90
18888;DHT22;9576;47.792;9.628;2022-09-09T03:36:50;14.00;99.90
18888;DHT22;9576;47.792;9.628;2022-09-09T03:39:52;14.10;99.90
18888;DHT22;9576;47.792;9.628;2022-09-09T03:42:54;14.10;99.90
18888;DHT22;9576;47.792;9.628;2022-09-09T03:45:58;14.10;99.90
18888;DHT22;9576;47.792;9.628;2022-09-09T03:48:59;14.00;99.90
18888;DHT22;9576;47.792;9.628;2022-09-09T03:52:01;14.10;99.90
18888;DHT22;9576;47.792;9.628;2022-09-09T03:55:04;14.10;99.90
18888;DHT22;9576;47.792;9.628;2022-09-09T03:58:06;14.20;99.90
18888;DHT22;9576;47.792;9.628;2022-09-09T04:01:10;14.20;99.90
18888;DHT22;9576;47.792;9.628;2022-09-09T04:04:13;14.30;99.90
18888;DHT22;9576;47.792;9.628;2022-09-09T04:07:15;14.40;99.90
18888;DHT22;9576;47.792;9.628;2022-09-09T04:10:17;14.40;99.90
18888;DHT22;9576;47.792;9.628;2022-09-09T04:13:19;14.40;99.90
18888;DHT22;9576;47.792;9.628;2022-09-09T04:16:22;14.40;99.90
18888;DHT22;9576;47.792;9.628;2022-09-09T04:19:24;14.40;99.90
18888;DHT22;9576;47.792;9.628;2022-09-09T04:22:26;14.40;99.90
18888;DHT22;9576;47.792;9.628;2022-09-09T04:25:27;14.40;99.90
18888;DHT22;9576;47.792;9.628;2022-09-09T04:28:30;14.40;99.90
18888;DHT22;9576;47.792;9.628;2022-09-09T04:31:33;14.40;99.90
18888;DHT22;9576;47.792;9.628;2022-09-09T04:34:35;14.40;99.90
18888;DHT22;9576;47.792;9.628;2022-09-09T04:37:37;14.50;99.90
18888;DHT22;9576;47.792;9.628;2022-09-09T04:40:41;14.50;99.90
18888;DHT22;9576;47.792;9.628;2022-09-09T04:43:43;14.60;99.90
18888;DHT22;9576;47.792;9.628;2022-09-09T04:46:46;14.60;99.90
18888;DHT22;9576;47.792;9.628;2022-09-09T04:49:48;14.70;99.90
18888;DHT22;9576;47.792;9.628;2022-09-09T04:52:50;14.80;99.90
18888;DHT22;9576;47.792;9.628;2022-09-09T04:55:52;14.90;99.90
18888;DHT22;9576;47.792;9.628;2022-09-09T04:58:54;14.90;99.90
18888;DHT22;9576;47.792;9.628;2022-09-09T05:01:58;15.00;99.90
18888;DHT22;9576;47.792;9.628;2022-09-09T05:05:01;15.10;99.90
18888;DHT22;9576;47.792;9.628;2022-09-09T05:08:03;15.30;99.90
18888;DHT22;9576;47.792;9.628;2022-09-09T05:11:12;15.30;99.90
18888;DHT22;9576;47.792;9.628;2022-09-09T05:14:14;15.10;99.90
18888;DHT22;9576;47.792;9.628;2022-09-09T05:17:17;15.20;99.90
18888;DHT22;9576;47.792;9.628;2022-09-09T05:20:19;15.30;99.90
18888;DHT22;9576;47.792;9.628;2022-09-09T05:23:21;15.20;99.90
18888;DHT22;9576;47.792;9.628;2022-09-09T05:26:23;15.20;99.90
18888;DHT22;9576;47.792;9.628;2022-09-09T05:29:25;15.20;99.90
18888;DHT22;9576;47.792;9.628;2022-09-09T05:32:30;15.20;99.90
18888;DHT22;9576;47.792;9.628;2022-09-09T05:35:33;15.20;99.90
18888;DHT22;9576;47.792;9.628;2022-09-09T05:38:35;15.20;99.90
18888;DHT22;9576;47.792;9.628;2022-09-09T05:41:38;15.20;99.90
18888;DHT22;9576;47.792;9.628;2022-09-09T05:44:40;15.20;99.90
18888;DHT22;9576;47.792;9.628;2022-09-09T05:47:50;15.20;99.90
18888;DHT22;9576;47.792;9.628;2022-09-09T05:50:53;15.30;99.90
18888;DHT22;9576;47.792;9.628;2022-09-09T05:53:55;15.20;99.90
18888;DHT22;9576;47.792;9.628;2022-09-09T05:56:58;15.20;99.90
18888;DHT22;9576;47.792;9.628;2022-09-09T06:00:00;15.20;99.90
18888;DHT22;9576;47.792;9.628;2022-09-09T06:03:04;15.30;99.90
18888;DHT22;9576;47.792;9.628;2022-09-09T06:06:06;15.20;99.90
18888;DHT22;9576;47.792;9.628;2022-09-09T06:09:09;15.20;99.90
18888;DHT22;9576;47.792;9.628;2022-09-09T06:12:11;15.30;99.90
18888;DHT22;9576;47.792;9.628;2022-09-09T06:15:13;15.30;99.90
18888;DHT22;9576;47.792;9.628;2022-09-09T06:18:17;15.20;99.90
18888;DHT22;9576;47.792;9.628;2022-09-09T06:21:19;15.20;99.90
18888;DHT22;9576;47.792;9.628;2022-09-09T06:24:22;15.10;99.90
18888;DHT22;9576;47.792;9.628;2022-09-09T06:27:24;15.20;99.90
18888;DHT22;9576;47.792;9.628;2022-09-09T06:30:26;15.20;99.90
18888;DHT22;9576;47.792;9.628;2022-09-09T06:33:32;15.30;99.90
18888;DHT22;9576;47.792;9.628;2022-09-09T06:36:35;15.40;99.90
18888;DHT22;9576;47.792;9.628;2022-09-09T06:39:38;15.30;99.90
18888;DHT22;9576;47.792;9.628;2022-09-09T06:42:40;15.30;99.90
18888;DHT22;9576;47.792;9.628;2022-09-09T06:45:41;15.30;99.90
18888;DHT22;9576;47.792;9.628;2022-09-09T06:48:45;15.20;99.90
18888;DHT22;9576;47.792;9.628;2022-09-09T06:51:47;15.30;99.90
18888;DHT22;9576;47.792;9.628;2022-09-09T06:54:49;15.40;99.90
18888;DHT22;9576;47.792;9.628;2022-09-09T06:57:51;15.40;99.90
18888;DHT22;9576;47.792;9.628;2022-09-09T07:01:00;15.40;99.90
18888;DHT22;9576;47.792;9.628;2022-09-09T07:04:04;15.40;99.90
18888;DHT22;9576;47.792;9.628;2022-09-09T07:07:08;15.30;99.90
18888;DHT22;9576;47.792;9.628;2022-09-09T07:10:12;15.30;99.90
18888;DHT22;9576;47.792;9.628;2022-09-09T07:13:14;15.30;99.90
18888;DHT22;9576;47.792;9.628;2022-09-09T07:16:17;15.30;99.90
18888;DHT22;9576;47.792;9.628;2022-09-09T07:19:21;15.40;99.90
18888;DHT22;9576;47.792;9.628;2022-09-09T07:22:22;15.40;99.90
18888;DHT22;9576;47.792;9.628;2022-09-09T07:25:25;15.60;99.90
18888;DHT22;9576;47.792;9.628;2022-09-09T07:28:29;15.60;99.90
18888;DHT22;9576;47.792;9.628;2022-09-09T07:31:32;15.80;99.90
18888;DHT22;9576;47.792;9.628;2022-09-09T07:34:36;15.90;99.90
18888;DHT22;9576;47.792;9.628;2022-09-09T07:37:38;16.20;99.90
18888;DHT22;9576;47.792;9.628;2022-09-09T07:40:40;16.30;99.90
18888;DHT22;9576;47.792;9.628;2022-09-09T07:43:42;16.30;99.90
18888;DHT22;9576;47.792;9.628;2022-09-09T07:46:44;16.40;99.90
18888;DHT22;9576;47.792;9.628;2022-09-09T07:49:47;16.30;99.90
18888;DHT22;9576;47.792;9.628;2022-09-09T07:52:50;16.40;99.90
18888;DHT22;9576;47.792;9.628;2022-09-09T07:55:52;16.60;99.90
18888;DHT22;9576;47.792;9.628;2022-09-09T07:58:54;16.60;99.90
18888;DHT22;9576;47.792;9.628;2022-09-09T08:01:56;16.50;99.90
18888;DHT22;9576;47.792;9.628;2022-09-09T08:05:00;16.60;99.90
18888;DHT22;9576;47.792;9.628;2022-09-09T08:08:01;16.60;99.90
18888;DHT22;9576;47.792;9.628;2022-09-09T08:11:05;16.70;99.90
18888;DHT22;9576;47.792;9.628;2022-09-09T08:14:08;16.80;99.90
18888;DHT22;9576;47.792;9.628;2022-09-09T08:17:10;16.90;99.90
18888;DHT22;9576;47.792;9.628;2022-09-09T08:20:13;17.10;99.90
18888;DHT22;9576;47.792;9.628;2022-09-09T08:23:15;17.20;99.90
18888;DHT22;9576;47.792;9.628;2022-09-09T08:26:17;17.30;99.90
18888;DHT22;9576;47.792;9.628;2022-09-09T08:29:22;17.30;99.90
18888;DHT22;9576;47.792;9.628;2022-09-09T08:32:24;17.40;99.90
18888;DHT22;9576;47.792;9.628;2022-09-09T08:35:28;17.60;99.90
18888;DHT22;9576;47.792;9.628;2022-09-09T08:38:33;17.60;99.90
18888;DHT22;9576;47.792;9.628;2022-09-09T08:41:38;17.60;99.90
18888;DHT22;9576;47.792;9.628;2022-09-09T08:44:45;17.90;99.90
18888;DHT22;9576;47.792;9.628;2022-09-09T08:51:09;18.00;99.90
18888;DHT22;9576;47.792;9.628;2022-09-09T08:54:10;18.10;99.90
18888;DHT22;9576;47.792;9.628;2022-09-09T08:57:13;18.20;99.90
18888;DHT22;9576;47.792;9.628;2022-09-09T09:00:16;18.20;99.90
18888;DHT22;9576;47.792;9.628;2022-09-09T09:03:19;18.20;99.90
18888;DHT22;9576;47.792;9.628;2022-09-09T09:06:30;18.20;99.90
18888;DHT22;9576;47.792;9.628;2022-09-09T09:09:37;18.30;99.90
18888;DHT22;9576;47.792;9.628;2022-09-09T09:12:42;18.40;99.90
18888;DHT22;9576;47.792;9.628;2022-09-09T09:15:46;18.40;99.90
18888;DHT22;9576;47.792;9.628;2022-09-09T09:18:50;18.50;99.90
18888;DHT22;9576;47.792;9.628;2022-09-09T09:21:56;18.60;99.90
18888;DHT22;9576;47.792;9.628;2022-09-09T09:25:01;18.80;99.90
18888;DHT22;9576;47.792;9.628;2022-09-09T09:28:10;18.60;99.90
18888;DHT22;9576;47.792;9.628;2022-09-09T09:31:17;18.70;99.90
18888;DHT22;9576;47.792;9.628;2022-09-09T09:34:21;18.70;99.90
18888;DHT22;9576;47.792;9.628;2022-09-09T09:37:26;18.60;99.90
18888;DHT22;9576;47.792;9.628;2022-09-09T09:40:28;18.40;99.90
18888;DHT22;9576;47.792;9.628;2022-09-09T09:43:31;18.40;99.90
18888;DHT22;9576;47.792;9.628;2022-09-09T09:46:33;18.40;99.90
18888;DHT22;9576;47.792;9.628;2022-09-09T09:49:35;18.40;99.90
18888;DHT22;9576;47.792;9.628;2022-09-09T09:52:38;18.50;99.90
18888;DHT22;9576;47.792;9.628;2022-09-09T09:55:46;18.90;99.90
18888;DHT22;9576;47.792;9.628;2022-09-09T09:58:50;19.30;99.90
18888;DHT22;9576;47.792;9.628;2022-09-09T10:01:53;19.20;99.90
18888;DHT22;9576;47.792;9.628;2022-09-09T10:05:03;19.30;99.90
18888;DHT22;9576;47.792;9.628;2022-09-09T10:08:09;19.30;99.90
18888;DHT22;9576;47.792;9.628;2022-09-09T10:11:20;19.20;99.90
18888;DHT22;9576;47.792;9.628;2022-09-09T10:14:26;19.30;99.90
18888;DHT22;9576;47.792;9.628;2022-09-09T10:17:30;19.60;99.90
18888;DHT22;9576;47.792;9.628;2022-09-09T10:20:36;20.00;99.90
18888;DHT22;9576;47.792;9.628;2022-09-09T10:23:49;19.90;99.90
18888;DHT22;9576;47.792;9.628;2022-09-09T10:26:55;19.50;99.90
18888;DHT22;9576;47.792;9.628;2022-09-09T10:30:03;19.40;99.90
18888;DHT22;9576;47.792;9.628;2022-09-09T10:33:09;19.50;99.90
18888;DHT22;9576;47.792;9.628;2022-09-09T10:36:12;19.70;99.90
18888;DHT22;9576;47.792;9.628;2022-09-09T10:39:18;19.80;99.90
18888;DHT22;9576;47.792;9.628;2022-09-09T10:42:27;19.80;99.90
18888;DHT22;9576;47.792;9.628;2022-09-09T10:45:32;19.80;99.90
18888;DHT22;9576;47.792;9.628;2022-09-09T10:48:42;19.90;99.90
18888;DHT22;9576;47.792;9.628;2022-09-09T10:51:48;20.30;99.90
18888;DHT22;9576;47.792;9.628;2022-09-09T10:54:55;20.40;99.90
18888;DHT22;9576;47.792;9.628;2022-09-09T10:57:58;20.50;99.90
18888;DHT22;9576;47.792;9.628;2022-09-09T11:01:02;20.70;99.90
18888;DHT22;9576;47.792;9.628;2022-09-09T11:04:10;20.70;99.90
18888;DHT22;9576;47.792;9.628;2022-09-09T11:07:23;20.50;99.90
18888;DHT22;9576;47.792;9.628;2022-09-09T11:10:29;20.40;99.90
18888;DHT22;9576;47.792;9.628;2022-09-09T11:13:38;20.50;99.90
18888;DHT22;9576;47.792;9.628;2022-09-09T11:16:42;20.60;99.90
18888;DHT22;9576;47.792;9.628;2022-09-09T11:19:48;21.00;99.90
18888;DHT22;9576;47.792;9.628;2022-09-09T11:22:50;21.10;99.90
18888;DHT22;9576;47.792;9.628;2022-09-09T11:25:56;21.10;99.90
18888;DHT22;9576;47.792;9.628;2022-09-09T11:29:04;21.00;99.90
18888;DHT22;9576;47.792;9.628;2022-09-09T11:32:12;20.70;99.90
18888;DHT22;9576;47.792;9.628;2022-09-09T11:35:24;20.50;99.90
18888;DHT22;9576;47.792;9.628;2022-09-09T11:38:29;20.20;99.90
18888;DHT22;9576;47.792;9.628;2022-09-09T11:41:40;20.00;99.90
18888;DHT22;9576;47.792;9.628;2022-09-09T11:44:42;20.00;99.90
18888;DHT22;9576;47.792;9.628;2022-09-09T11:47:51;20.20;99.90
18888;DHT22;9576;47.792;9.628;2022-09-09T11:51:00;20.60;99.90
18888;DHT22;9576;47.792;9.628;2022-09-09T11:54:03;20.90;99.90
18888;DHT22;9576;47.792;9.628;2022-09-09T11:57:27;21.00;99.90
18888;DHT22;9576;47.792;9.628;2022-09-09T12:00:33;20.90;99.90
18888;DHT22;9576;47.792;9.628;2022-09-09T12:03:36;21.10;99.90
18888;DHT22;9576;47.792;9.628;2022-09-09T12:06:44;21.20;99.90
18888;DHT22;9576;47.792;9.628;2022-09-09T12:09:47;21.10;99.90
18888;DHT22;9576;47.792;9.628;2022-09-09T12:12:51;20.70;99.90
18888;DHT22;9576;47.792;9.628;2022-09-09T12:15:54;20.40;99.90
18888;DHT22;9576;47.792;9.628;2022-09-09T12:19:04;20.60;99.90
18888;DHT22;9576;47.792;9.628;2022-09-09T12:22:07;21.00;99.90
18888;DHT22;9576;47.792;9.628;2022-09-09T12:25:16;21.20;99.90
18888;DHT22;9576;47.792;9.628;2022-09-09T12:28:22;21.20;99.90
18888;DHT22;9576;47.792;9.628;2022-09-09T12:31:27;21.10;99.90
18888;DHT22;9576;47.792;9.628;2022-09-09T12:34:37;21.10;99.90
18888;DHT22;9576;47.792;9.628;2022-09-09T12:37:40;21.40;99.90
18888;DHT22;9576;47.792;9.628;2022-09-09T12:40:42;21.50;99.90
18888;DHT22;9576;47.792;9.628;2022-09-09T12:44:04;21.70;99.90
18888;DHT22;9576;47.792;9.628;2022-09-09T12:47:09;21.60;99.90
18888;DHT22;9576;47.792;9.628;2022-09-09T12:50:16;21.50;99.90
18888;DHT22;9576;47.792;9.628;2022-09-09T12:53:20;21.80;99.90
18888;DHT22;9576;47.792;9.628;2022-09-09T12:56:24;22.30;99.90
18888;DHT22;9576;47.792;9.628;2022-09-09T12:59:36;22.90;99.90
18888;DHT22;9576;47.792;9.628;2022-09-09T13:02:45;23.50;99.90
18888;DHT22;9576;47.792;9.628;2022-09-09T13:05:47;24.00;99.90
18888;DHT22;9576;47.792;9.628;2022-09-09T13:08:49;24.00;99.90
18888;DHT22;9576;47.792;9.628;2022-09-09T13:11:52;24.00;99.90
18888;DHT22;9576;47.792;9.628;2022-09-09T13:14:57;24.20;99.90
18888;DHT22;9576;47.792;9.628;2022-09-09T13:18:00;24.50;99.90
18888;DHT22;9576;47.792;9.628;2022-09-09T13:21:04;25.00;99.90
18888;DHT22;9576;47.792;9.628;2022-09-09T13:24:20;25.50;99.90
18888;DHT22;9576;47.792;9.628;2022-09-09T13:27:24;26.00;99.90
18888;DHT22;9576;47.792;9.628;2022-09-09T13:30:30;25.80;99.90
18888;DHT22;9576;47.792;9.628;2022-09-09T13:33:34;25.90;99.90
18888;DHT22;9576;47.792;9.628;2022-09-09T13:36:37;26.10;99.90
18888;DHT22;9576;47.792;9.628;2022-09-09T13:39:50;26.20;99.90
18888;DHT22;9576;47.792;9.628;2022-09-09T13:42:54;26.50;99.90
18888;DHT22;9576;47.792;9.628;2022-09-09T13:45:58;26.80;99.90
18888;DHT22;9576;47.792;9.628;2022-09-09T13:49:02;26.70;99.90
18888;DHT22;9576;47.792;9.628;2022-09-09T13:52:18;26.60;99.90
18888;DHT22;9576;47.792;9.628;2022-09-09T13:55:23;26.90;99.90
18888;DHT22;9576;47.792;9.628;2022-09-09T13:58:25;26.70;99.90
18888;DHT22;9576;47.792;9.628;2022-09-09T14:01:28;26.90;99.90
18888;DHT22;9576;47.792;9.628;2022-09-09T14:04:30;27.00;99.90
18888;DHT22;9576;47.792;9.628;2022-09-09T14:07:32;27.10;99.90
18888;DHT22;9576;47.792;9.628;2022-09-09T14:10:34;27.60;99.90
18888;DHT22;9576;47.792;9.628;2022-09-09T14:13:37;28.30;99.90
18888;DHT22;9576;47.792;9.628;2022-09-09T14:16:40;28.70;99.90
18888;DHT22;9576;47.792;9.628;2022-09-09T14:19:42;28.80;99.90
18888;DHT22;9576;47.792;9.628;2022-09-09T14:22:45;29.20;99.90
18888;DHT22;9576;47.792;9.628;2022-09-09T14:25:47;29.30;99.90
18888;DHT22;9576;47.792;9.628;2022-09-09T14:28:49;29.80;99.90
18888;DHT22;9576;47.792;9.628;2022-09-09T14:31:53;30.20;99.90
18888;DHT22;9576;47.792;9.628;2022-09-09T14:34:55;30.50;99.90
18888;DHT22;9576;47.792;9.628;2022-09-09T14:37:57;30.60;99.90
18888;DHT22;9576;47.792;9.628;2022-09-09T14:40:58;30.60;99.90
18888;DHT22;9576;47.792;9.628;2022-09-09T14:44:03;30.70;99.90
18888;DHT22;9576;47.792;9.628;2022-09-09T14:47:06;30.90;99.90
18888;DHT22;9576;47.792;9.628;2022-09-09T14:50:08;31.40;99.70
18888;DHT22;9576;47.792;9.628;2022-09-09T14:53:12;31.30;98.50
18888;DHT22;9576;47.792;9.628;2022-09-09T14:56:15;31.40;99.30
18888;DHT22;9576;47.792;9.628;2022-09-09T14:59:17;31.10;99.50
18888;DHT22;9576;47.792;9.628;2022-09-09T15:02:20;30.70;99.90
18888;DHT22;9576;47.792;9.628;2022-09-09T15:05:22;31.20;99.90
18888;DHT22;9576;47.792;9.628;2022-09-09T15:08:24;32.30;98.90
18888;DHT22;9576;47.792;9.628;2022-09-09T15:11:27;32.20;97.30
18888;DHT22;9576;47.792;9.628;2022-09-09T15:14:30;32.20;95.60
18888;DHT22;9576;47.792;9.628;2022-09-09T15:17:34;32.20;98.00
18888;DHT22;9576;47.792;9.628;2022-09-09T15:20:36;32.90;97.70
18888;DHT22;9576;47.792;9.628;2022-09-09T15:23:38;31.90;96.70
18888;DHT22;9576;47.792;9.628;2022-09-09T15:26:40;30.10;98.70
18888;DHT22;9576;47.792;9.628;2022-09-09T15:29:42;28.10;98.30
18888;DHT22;9576;47.792;9.628;2022-09-09T15:32:46;27.50;99.90
18888;DHT22;9576;47.792;9.628;2022-09-09T15:35:48;28.50;99.90
18888;DHT22;9576;47.792;9.628;2022-09-09T15:38:51;29.90;99.90
18888;DHT22;9576;47.792;9.628;2022-09-09T15:41:53;30.90;98.70
18888;DHT22;9576;47.792;9.628;2022-09-09T15:44:55;30.60;98.20
18888;DHT22;9576;47.792;9.628;2022-09-09T15:47:59;29.10;98.80
18888;DHT22;9576;47.792;9.628;2022-09-09T15:51:01;27.30;99.90
18888;DHT22;9576;47.792;9.628;2022-09-09T15:54:03;26.30;99.90
18888;DHT22;9576;47.792;9.628;2022-09-09T15:57:06;26.50;99.90
18888;DHT22;9576;47.792;9.628;2022-09-09T16:00:09;26.90;99.90
18888;DHT22;9576;47.792;9.628;2022-09-09T16:03:14;27.10;99.90
18888;DHT22;9576;47.792;9.628;2022-09-09T16:06:16;27.60;99.90
18888;DHT22;9576;47.792;9.628;2022-09-09T16:09:18;28.30;99.90
18888;DHT22;9576;47.792;9.628;2022-09-09T16:12:20;28.00;99.90
18888;DHT22;9576;47.792;9.628;2022-09-09T16:15:22;26.90;99.90
18888;DHT22;9576;47.792;9.628;2022-09-09T16:22:04;26.40;99.90
18888;DHT22;9576;47.792;9.628;2022-09-09T16:25:07;26.50;99.90
18888;DHT22;9576;47.792;9.628;2022-09-09T16:28:09;26.40;99.90
18888;DHT22;9576;47.792;9.628;2022-09-09T16:31:11;26.40;99.90
18888;DHT22;9576;47.792;9.628;2022-09-09T16:34:17;27.00;99.90
18888;DHT22;9576;47.792;9.628;2022-09-09T16:37:20;27.20;99.90
18888;DHT22;9576;47.792;9.628;2022-09-09T16:40:22;27.60;99.90
18888;DHT22;9576;47.792;9.628;2022-09-09T16:43:24;27.80;99.90
18888;DHT22;9576;47.792;9.628;2022-09-09T16:46:26;27.90;99.90
18888;DHT22;9576;47.792;9.628;2022-09-09T16:49:28;27.70;99.90
18888;DHT22;9576;47.792;9.628;2022-09-09T16:52:31;27.60;99.90
18888;DHT22;9576;47.792;9.628;2022-09-09T16:58:57;27.30;99.90
18888;DHT22;9576;47.792;9.628;2022-09-09T17:01:59;27.50;99.90
18888;DHT22;9576;47.792;9.628;2022-09-09T17:05:05;27.00;99.90
18888;DHT22;9576;47.792;9.628;2022-09-09T17:08:08;25.90;99.90
18888;DHT22;9576;47.792;9.628;2022-09-09T17:11:11;25.00;99.90
18888;DHT22;9576;47.792;9.628;2022-09-09T17:14:15;23.90;99.90
18888;DHT22;9576;47.792;9.628;2022-09-09T17:17:17;23.10;99.90
18888;DHT22;9576;47.792;9.628;2022-09-09T17:20:19;22.40;99.90
18888;DHT22;9576;47.792;9.628;2022-09-09T17:23:23;21.90;99.90
18888;DHT22;9576;47.792;9.628;2022-09-09T17:26:26;21.50;99.90
18888;DHT22;9576;47.792;9.628;2022-09-09T17:29:28;21.10;99.90
18888;DHT22;9576;47.792;9.628;2022-09-09T17:32:30;20.70;99.90
18888;DHT22;9576;47.792;9.628;2022-09-09T17:35:32;20.40;99.90
18888;DHT22;9576;47.792;9.628;2022-09-09T17:38:35;20.20;99.90
18888;DHT22;9576;47.792;9.628;2022-09-09T17:41:37;19.80;99.90
18888;DHT22;9576;47.792;9.628;2022-09-09T17:44:39;19.50;99.90
18888;DHT22;9576;47.792;9.628;2022-09-09T17:47:42;19.30;99.90
18888;DHT22;9576;47.792;9.628;2022-09-09T17:50:44;19.10;99.90
18888;DHT22;9576;47.792;9.628;2022-09-09T17:53:48;18.90;99.90
18888;DHT22;9576;47.792;9.628;2022-09-09T17:56:50;18.70;99.90
18888;DHT22;9576;47.792;9.628;2022-09-09T17:59:52;18.70;99.90
18888;DHT22;9576;47.792;9.628;2022-09-09T18:02:54;18.60;99.90
18888;DHT22;9576;47.792;9.628;2022-09-09T18:05:59;18.60;99.90
18888;DHT22;9576;47.792;9.628;2022-09-09T18:09:03;18.50;99.90
18888;DHT22;9576;47.792;9.628;2022-09-09T18:12:05;18.30;99.90
18888;DHT22;9576;47.792;9.628;2022-09-09T18:15:07;18.30;99.90
18888;DHT22;9576;47.792;9.628;2022-09-09T18:18:09;18.20;99.90
18888;DHT22;9576;47.792;9.628;2022-09-09T18:21:11;18.20;99.90
18888;DHT22;9576;47.792;9.628;2022-09-09T18:24:17;18.10;99.90
18888;DHT22;9576;47.792;9.628;2022-09-09T18:27:22;18.10;99.90
18888;DHT22;9576;47.792;9.628;2022-09-09T18:30:24;18.10;99.90
18888;DHT22;9576;47.792;9.628;2022-09-09T18:33:25;18.10;99.90
18888;DHT22;9576;47.792;9.628;2022-09-09T18:36:29;18.10;99.90
18888;DHT22;9576;47.792;9.628;2022-09-09T18:39:32;18.10;99.90
18888;DHT22;9576;47.792;9.628;2022-09-09T18:42:34;18.10;99.90
18888;DHT22;9576;47.792;9.628;2022-09-09T18:45:36;18.10;99.90
18888;DHT22;9576;47.792;9.628;2022-09-09T18:48:38;18.10;99.90
18888;DHT22;9576;47.792;9.628;2022-09-09T18:51:40;18.10;99.90
18888;DHT22;9576;47.792;9.628;2022-09-09T18:54:44;17.80;99.90
18888;DHT22;9576;47.792;9.628;2022-09-09T18:57:47;17.30;99.90
18888;DHT22;9576;47.792;9.628;2022-09-09T19:00:50;16.50;99.90
18888;DHT22;9576;47.792;9.628;2022-09-09T19:03:52;16.30;99.90
18888;DHT22;9576;47.792;9.628;2022-09-09T19:06:56;16.10;99.90
18888;DHT22;9576;47.792;9.628;2022-09-09T19:10:02;16.10;99.90
18888;DHT22;9576;47.792;9.628;2022-09-09T19:13:04;15.80;99.90
18888;DHT22;9576;47.792;9.628;2022-09-09T19:16:06;15.70;99.90
18888;DHT22;9576;47.792;9.628;2022-09-09T19:19:09;15.70;99.90
18888;DHT22;9576;47.792;9.628;2022-09-09T19:22:12;15.60;99.90
18888;DHT22;9576;47.792;9.628;2022-09-09T19:25:16;15.60;99.90
18888;DHT22;9576;47.792;9.628;2022-09-09T19:28:17;15.50;99.90
18888;DHT22;9576;47.792;9.628;2022-09-09T19:31:19;15.30;99.90
18888;DHT22;9576;47.792;9.628;2022-09-09T19:34:23;15.30;99.90
18888;DHT22;9576;47.792;9.628;2022-09-09T19:37:25;15.30;99.90
18888;DHT22;9576;47.792;9.628;2022-09-09T19:40:28;15.30;99.90
18888;DHT22;9576;47.792;9.628;2022-09-09T19:43:31;15.30;99.90
18888;DHT22;9576;47.792;9.628;2022-09-09T19:46:33;15.20;99.90
18888;DHT22;9576;47.792;9.628;2022-09-09T19:49:35;15.10;99.90